sensor_id;sensor_type;location;lat;lon;timestamp;P1;durP1;ratioP1;P2;durP2;ratioP2
69523;SDS011;56723;42.694;23.286;2022-07-04T00:00:17;5.47;;;2.90;;
69523;SDS011;56723;42.694;23.286;2022-07-04T00:05:13;3.78;;;2.47;;
69523;SDS011;56723;42.694;23.286;2022-07-04T00:07:42;3.97;;;2.65;;
69523;SDS011;56723;42.694;23.286;2022-07-04T00:10:11;7.57;;;3.05;;
69523;SDS011;56723;42.694;23.286;2022-07-04T00:12:40;4.38;;;2.63;;
69523;SDS011;56723;42.694;23.286;2022-07-04T00:15:08;6.05;;;2.88;;
69523;SDS011;56723;42.694;23.286;2022-07-04T00:17:36;4.40;;;2.38;;
69523;SDS011;56723;42.694;23.286;2022-07-04T00:20:04;5.65;;;3.00;;
69523;SDS011;56723;42.694;23.286;2022-07-04T00:22:32;7.40;;;3.80;;
69523;SDS011;56723;42.694;23.286;2022-07-04T00:25:00;4.78;;;2.90;;
69523;SDS011;56723;42.694;23.286;2022-07-04T00:27:27;2.95;;;2.65;;
69523;SDS011;56723;42.694;23.286;2022-07-04T00:29:54;5.05;;;3.08;;
69523;SDS011;56723;42.694;23.286;2022-07-04T00:32:21;6.30;;;2.33;;
69523;SDS011;56723;42.694;23.286;2022-07-04T00:34:48;6.32;;;2.78;;
69523;SDS011;56723;42.694;23.286;2022-07-04T00:37:15;4.13;;;2.03;;
69523;SDS011;56723;42.694;23.286;2022-07-04T00:39:42;3.10;;;2.72;;
69523;SDS011;56723;42.694;23.286;2022-07-04T00:42:09;3.65;;;2.78;;
69523;SDS011;56723;42.694;23.286;2022-07-04T00:44:37;7.13;;;2.85;;
69523;SDS011;56723;42.694;23.286;2022-07-04T00:47:04;3.45;;;2.33;;
69523;SDS011;56723;42.694;23.286;2022-07-04T00:49:32;4.55;;;2.35;;
69523;SDS011;56723;42.694;23.286;2022-07-04T00:52:00;4.88;;;2.42;;
69523;SDS011;56723;42.694;23.286;2022-07-04T00:54:28;5.45;;;2.60;;
69523;SDS011;56723;42.694;23.286;2022-07-04T00:56:58;5.70;;;2.47;;
69523;SDS011;56723;42.694;23.286;2022-07-04T00:59:27;14.68;;;3.75;;
69523;SDS011;56723;42.694;23.286;2022-07-04T01:01:54;3.05;;;1.90;;
69523;SDS011;56723;42.694;23.286;2022-07-04T01:04:22;5.88;;;3.15;;
69523;SDS011;56723;42.694;23.286;2022-07-04T01:06:49;4.22;;;2.40;;
69523;SDS011;56723;42.694;23.286;2022-07-04T01:09:16;4.90;;;2.28;;
69523;SDS011;56723;42.694;23.286;2022-07-04T01:11:43;3.92;;;2.10;;
69523;SDS011;56723;42.694;23.286;2022-07-04T01:14:10;3.65;;;1.73;;
69523;SDS011;56723;42.694;23.286;2022-07-04T01:16:37;4.38;;;1.98;;
69523;SDS011;56723;42.694;23.286;2022-07-04T01:19:04;5.40;;;1.88;;
69523;SDS011;56723;42.694;23.286;2022-07-04T01:21:32;2.97;;;1.70;;
69523;SDS011;56723;42.694;23.286;2022-07-04T01:23:59;4.25;;;1.30;;
69523;SDS011;56723;42.694;23.286;2022-07-04T01:26:27;2.28;;;2.03;;
69523;SDS011;56723;42.694;23.286;2022-07-04T01:28:55;5.55;;;2.33;;
69523;SDS011;56723;42.694;23.286;2022-07-04T01:31:22;3.67;;;1.40;;
69523;SDS011;56723;42.694;23.286;2022-07-04T01:33:49;2.65;;;1.23;;
69523;SDS011;56723;42.694;23.286;2022-07-04T01:36:16;2.72;;;1.95;;
69523;SDS011;56723;42.694;23.286;2022-07-04T01:38:43;5.80;;;1.75;;
69523;SDS011;56723;42.694;23.286;2022-07-04T01:41:10;2.63;;;1.50;;
69523;SDS011;56723;42.694;23.286;2022-07-04T01:43:37;4.28;;;1.25;;
69523;SDS011;56723;42.694;23.286;2022-07-04T01:46:04;2.85;;;1.15;;
69523;SDS011;56723;42.694;23.286;2022-07-04T01:48:31;3.47;;;1.45;;
69523;SDS011;56723;42.694;23.286;2022-07-04T01:50:58;3.90;;;1.30;;
69523;SDS011;56723;42.694;23.286;2022-07-04T01:53:25;3.78;;;1.75;;
69523;SDS011;56723;42.694;23.286;2022-07-04T01:55:52;3.67;;;1.35;;
69523;SDS011;56723;42.694;23.286;2022-07-04T01:58:19;3.78;;;1.42;;
69523;SDS011;56723;42.694;23.286;2022-07-04T02:00:46;3.17;;;1.27;;
69523;SDS011;56723;42.694;23.286;2022-07-04T02:03:32;6.47;;;1.70;;
69523;SDS011;56723;42.694;23.286;2022-07-04T02:05:59;3.60;;;1.67;;
69523;SDS011;56723;42.694;23.286;2022-07-04T02:08:26;2.28;;;1.60;;
69523;SDS011;56723;42.694;23.286;2022-07-04T02:11:13;2.15;;;1.15;;
69523;SDS011;56723;42.694;23.286;2022-07-04T02:13:40;6.07;;;1.85;;
69523;SDS011;56723;42.694;23.286;2022-07-04T02:16:07;5.18;;;1.83;;
69523;SDS011;56723;42.694;23.286;2022-07-04T02:18:34;3.88;;;1.88;;
69523;SDS011;56723;42.694;23.286;2022-07-04T02:21:01;3.20;;;1.40;;
69523;SDS011;56723;42.694;23.286;2022-07-04T02:23:28;4.53;;;1.00;;
69523;SDS011;56723;42.694;23.286;2022-07-04T02:25:55;5.07;;;2.17;;
69523;SDS011;56723;42.694;23.286;2022-07-04T02:28:22;4.55;;;1.40;;
69523;SDS011;56723;42.694;23.286;2022-07-04T02:30:49;7.57;;;1.88;;
69523;SDS011;56723;42.694;23.286;2022-07-04T02:33:16;2.45;;;1.45;;
69523;SDS011;56723;42.694;23.286;2022-07-04T02:35:43;4.60;;;1.98;;
69523;SDS011;56723;42.694;23.286;2022-07-04T02:38:10;2.17;;;0.95;;
69523;SDS011;56723;42.694;23.286;2022-07-04T02:40:37;3.20;;;1.50;;
69523;SDS011;56723;42.694;23.286;2022-07-04T02:43:05;1.90;;;1.20;;
69523;SDS011;56723;42.694;23.286;2022-07-04T02:45:32;2.72;;;1.60;;
69523;SDS011;56723;42.694;23.286;2022-07-04T02:47:59;3.83;;;1.58;;
69523;SDS011;56723;42.694;23.286;2022-07-04T02:50:27;2.88;;;1.75;;
69523;SDS011;56723;42.694;23.286;2022-07-04T02:52:53;2.83;;;1.42;;
69523;SDS011;56723;42.694;23.286;2022-07-04T02:55:20;3.03;;;1.80;;
69523;SDS011;56723;42.694;23.286;2022-07-04T02:57:47;3.45;;;1.88;;
69523;SDS011;56723;42.694;23.286;2022-07-04T03:00:14;3.83;;;1.80;;
69523;SDS011;56723;42.694;23.286;2022-07-04T03:02:41;5.97;;;2.78;;
69523;SDS011;56723;42.694;23.286;2022-07-04T03:05:08;5.43;;;2.80;;
69523;SDS011;56723;42.694;23.286;2022-07-04T03:07:35;8.27;;;2.50;;
69523;SDS011;56723;42.694;23.286;2022-07-04T03:10:02;3.83;;;2.10;;
69523;SDS011;56723;42.694;23.286;2022-07-04T03:12:29;5.43;;;2.85;;
69523;SDS011;56723;42.694;23.286;2022-07-04T03:14:56;5.88;;;2.97;;
69523;SDS011;56723;42.694;23.286;2022-07-04T03:19:52;3.65;;;2.67;;
69523;SDS011;56723;42.694;23.286;2022-07-04T03:22:19;4.13;;;3.00;;
69523;SDS011;56723;42.694;23.286;2022-07-04T03:24:46;7.90;;;4.30;;
69523;SDS011;56723;42.694;23.286;2022-07-04T03:27:14;4.70;;;3.72;;
69523;SDS011;56723;42.694;23.286;2022-07-04T03:29:41;5.40;;;4.60;;
69523;SDS011;56723;42.694;23.286;2022-07-04T03:32:08;7.72;;;4.35;;
69523;SDS011;56723;42.694;23.286;2022-07-04T03:34:35;5.03;;;4.03;;
69523;SDS011;56723;42.694;23.286;2022-07-04T03:37:02;5.50;;;3.67;;
69523;SDS011;56723;42.694;23.286;2022-07-04T03:39:29;7.15;;;4.63;;
69523;SDS011;56723;42.694;23.286;2022-07-04T03:41:56;10.38;;;5.00;;
69523;SDS011;56723;42.694;23.286;2022-07-04T03:44:23;7.22;;;4.53;;
69523;SDS011;56723;42.694;23.286;2022-07-04T03:46:50;9.77;;;4.43;;
69523;SDS011;56723;42.694;23.286;2022-07-04T03:49:17;6.13;;;4.63;;
69523;SDS011;56723;42.694;23.286;2022-07-04T03:51:44;6.10;;;4.57;;
69523;SDS011;56723;42.694;23.286;2022-07-04T03:54:11;5.90;;;4.40;;
69523;SDS011;56723;42.694;23.286;2022-07-04T03:56:43;11.43;;;6.65;;
69523;SDS011;56723;42.694;23.286;2022-07-04T03:59:10;9.27;;;4.07;;
69523;SDS011;56723;42.694;23.286;2022-07-04T04:01:37;9.35;;;4.35;;
69523;SDS011;56723;42.694;23.286;2022-07-04T04:04:04;9.77;;;4.20;;
69523;SDS011;56723;42.694;23.286;2022-07-04T04:06:50;9.40;;;3.60;;
69523;SDS011;56723;42.694;23.286;2022-07-04T04:09:17;5.47;;;3.60;;
69523;SDS011;56723;42.694;23.286;2022-07-04T04:11:45;9.85;;;4.00;;
69523;SDS011;56723;42.694;23.286;2022-07-04T04:14:13;5.20;;;4.25;;
69523;SDS011;56723;42.694;23.286;2022-07-04T04:16:40;11.75;;;6.30;;
69523;SDS011;56723;42.694;23.286;2022-07-04T04:19:09;9.88;;;5.60;;
69523;SDS011;56723;42.694;23.286;2022-07-04T04:21:37;8.98;;;5.68;;
69523;SDS011;56723;42.694;23.286;2022-07-04T04:24:04;8.48;;;5.90;;
69523;SDS011;56723;42.694;23.286;2022-07-04T04:26:31;7.85;;;5.65;;
69523;SDS011;56723;42.694;23.286;2022-07-04T04:28:58;8.48;;;5.57;;
69523;SDS011;56723;42.694;23.286;2022-07-04T04:31:25;7.97;;;5.65;;
69523;SDS011;56723;42.694;23.286;2022-07-04T04:33:52;9.15;;;5.50;;
69523;SDS011;56723;42.694;23.286;2022-07-04T04:36:19;7.57;;;5.30;;
69523;SDS011;56723;42.694;23.286;2022-07-04T04:38:46;9.60;;;5.60;;
69523;SDS011;56723;42.694;23.286;2022-07-04T04:41:13;7.88;;;5.50;;
69523;SDS011;56723;42.694;23.286;2022-07-04T04:43:40;7.50;;;5.20;;
69523;SDS011;56723;42.694;23.286;2022-07-04T04:46:07;13.23;;;6.05;;
69523;SDS011;56723;42.694;23.286;2022-07-04T04:48:35;10.40;;;6.55;;
69523;SDS011;56723;42.694;23.286;2022-07-04T04:51:02;9.63;;;6.10;;
69523;SDS011;56723;42.694;23.286;2022-07-04T04:53:34;7.45;;;4.93;;
69523;SDS011;56723;42.694;23.286;2022-07-04T04:56:03;7.88;;;5.00;;
69523;SDS011;56723;42.694;23.286;2022-07-04T04:58:30;7.65;;;4.72;;
69523;SDS011;56723;42.694;23.286;2022-07-04T05:00:57;8.02;;;5.22;;
69523;SDS011;56723;42.694;23.286;2022-07-04T05:03:44;11.57;;;5.43;;
69523;SDS011;56723;42.694;23.286;2022-07-04T05:06:11;9.07;;;5.38;;
69523;SDS011;56723;42.694;23.286;2022-07-04T05:08:39;6.82;;;4.05;;
69523;SDS011;56723;42.694;23.286;2022-07-04T05:11:06;8.43;;;4.68;;
69523;SDS011;56723;42.694;23.286;2022-07-04T05:13:33;6.38;;;5.07;;
69523;SDS011;56723;42.694;23.286;2022-07-04T05:16:00;8.15;;;5.22;;
69523;SDS011;56723;42.694;23.286;2022-07-04T05:18:27;10.95;;;6.30;;
69523;SDS011;56723;42.694;23.286;2022-07-04T05:20:54;5.97;;;4.70;;
69523;SDS011;56723;42.694;23.286;2022-07-04T05:23:21;9.23;;;5.38;;
69523;SDS011;56723;42.694;23.286;2022-07-04T05:25:48;9.13;;;4.85;;
69523;SDS011;56723;42.694;23.286;2022-07-04T05:28:15;7.40;;;4.47;;
69523;SDS011;56723;42.694;23.286;2022-07-04T05:30:42;7.95;;;4.43;;
69523;SDS011;56723;42.694;23.286;2022-07-04T05:33:09;12.75;;;7.15;;
69523;SDS011;56723;42.694;23.286;2022-07-04T05:35:37;11.70;;;5.40;;
69523;SDS011;56723;42.694;23.286;2022-07-04T05:38:05;9.10;;;5.07;;
69523;SDS011;56723;42.694;23.286;2022-07-04T05:40:32;9.98;;;4.50;;
69523;SDS011;56723;42.694;23.286;2022-07-04T05:42:59;6.43;;;4.32;;
69523;SDS011;56723;42.694;23.286;2022-07-04T05:45:26;6.63;;;3.90;;
69523;SDS011;56723;42.694;23.286;2022-07-04T05:47:53;10.30;;;4.78;;
69523;SDS011;56723;42.694;23.286;2022-07-04T05:50:20;6.80;;;3.90;;
69523;SDS011;56723;42.694;23.286;2022-07-04T05:52:48;6.68;;;4.35;;
69523;SDS011;56723;42.694;23.286;2022-07-04T05:55:15;7.70;;;3.47;;
69523;SDS011;56723;42.694;23.286;2022-07-04T05:57:42;6.50;;;3.88;;
69523;SDS011;56723;42.694;23.286;2022-07-04T06:00:11;5.03;;;3.58;;
69523;SDS011;56723;42.694;23.286;2022-07-04T06:02:38;6.25;;;3.92;;
69523;SDS011;56723;42.694;23.286;2022-07-04T06:05:05;5.03;;;3.30;;
69523;SDS011;56723;42.694;23.286;2022-07-04T06:07:33;8.73;;;3.97;;
69523;SDS011;56723;42.694;23.286;2022-07-04T06:10:00;6.78;;;3.58;;
69523;SDS011;56723;42.694;23.286;2022-07-04T06:12:27;5.70;;;3.40;;
69523;SDS011;56723;42.694;23.286;2022-07-04T06:14:54;10.45;;;3.45;;
69523;SDS011;56723;42.694;23.286;2022-07-04T06:17:21;9.10;;;4.68;;
69523;SDS011;56723;42.694;23.286;2022-07-04T06:19:48;5.57;;;2.50;;
69523;SDS011;56723;42.694;23.286;2022-07-04T06:22:15;8.38;;;3.38;;
69523;SDS011;56723;42.694;23.286;2022-07-04T06:24:50;6.43;;;2.97;;
69523;SDS011;56723;42.694;23.286;2022-07-04T06:27:17;4.53;;;3.45;;
69523;SDS011;56723;42.694;23.286;2022-07-04T06:29:44;8.60;;;3.83;;
69523;SDS011;56723;42.694;23.286;2022-07-04T06:32:11;7.18;;;2.58;;
69523;SDS011;56723;42.694;23.286;2022-07-04T06:34:38;7.80;;;3.35;;
69523;SDS011;56723;42.694;23.286;2022-07-04T06:37:23;4.28;;;1.83;;
69523;SDS011;56723;42.694;23.286;2022-07-04T06:39:50;5.75;;;1.70;;
69523;SDS011;56723;42.694;23.286;2022-07-04T06:42:17;9.93;;;4.45;;
69523;SDS011;56723;42.694;23.286;2022-07-04T06:44:48;5.82;;;2.08;;
69523;SDS011;56723;42.694;23.286;2022-07-04T06:47:15;2.50;;;1.40;;
69523;SDS011;56723;42.694;23.286;2022-07-04T06:49:42;3.28;;;1.55;;
69523;SDS011;56723;42.694;23.286;2022-07-04T06:52:09;1.73;;;1.00;;
69523;SDS011;56723;42.694;23.286;2022-07-04T06:54:36;4.15;;;1.38;;
69523;SDS011;56723;42.694;23.286;2022-07-04T06:57:03;4.05;;;1.08;;
69523;SDS011;56723;42.694;23.286;2022-07-04T06:59:50;5.45;;;2.28;;
69523;SDS011;56723;42.694;23.286;2022-07-04T07:02:17;4.03;;;1.60;;
69523;SDS011;56723;42.694;23.286;2022-07-04T07:04:44;9.27;;;1.48;;
69523;SDS011;56723;42.694;23.286;2022-07-04T07:07:11;8.50;;;1.10;;
69523;SDS011;56723;42.694;23.286;2022-07-04T07:09:38;4.90;;;2.10;;
69523;SDS011;56723;42.694;23.286;2022-07-04T07:12:06;2.92;;;1.15;;
69523;SDS011;56723;42.694;23.286;2022-07-04T07:14:33;6.57;;;1.70;;
69523;SDS011;56723;42.694;23.286;2022-07-04T07:17:00;5.57;;;1.48;;
69523;SDS011;56723;42.694;23.286;2022-07-04T07:19:27;5.00;;;1.67;;
69523;SDS011;56723;42.694;23.286;2022-07-04T07:21:54;3.92;;;1.17;;
69523;SDS011;56723;42.694;23.286;2022-07-04T07:24:21;3.33;;;1.33;;
69523;SDS011;56723;42.694;23.286;2022-07-04T07:26:50;1.80;;;1.30;;
69523;SDS011;56723;42.694;23.286;2022-07-04T07:29:17;6.45;;;2.15;;
69523;SDS011;56723;42.694;23.286;2022-07-04T07:31:44;3.63;;;1.40;;
69523;SDS011;56723;42.694;23.286;2022-07-04T07:34:11;2.72;;;1.30;;
69523;SDS011;56723;42.694;23.286;2022-07-04T07:36:38;6.13;;;2.00;;
69523;SDS011;56723;42.694;23.286;2022-07-04T07:39:05;5.55;;;1.70;;
69523;SDS011;56723;42.694;23.286;2022-07-04T07:41:32;6.22;;;2.30;;
69523;SDS011;56723;42.694;23.286;2022-07-04T07:43:59;3.28;;;1.48;;
69523;SDS011;56723;42.694;23.286;2022-07-04T07:46:27;2.33;;;1.30;;
69523;SDS011;56723;42.694;23.286;2022-07-04T07:48:54;5.25;;;1.67;;
69523;SDS011;56723;42.694;23.286;2022-07-04T07:51:21;4.80;;;2.15;;
69523;SDS011;56723;42.694;23.286;2022-07-04T07:53:48;3.03;;;1.92;;
69523;SDS011;56723;42.694;23.286;2022-07-04T07:56:35;4.53;;;1.95;;
69523;SDS011;56723;42.694;23.286;2022-07-04T07:59:02;5.90;;;2.20;;
69523;SDS011;56723;42.694;23.286;2022-07-04T08:01:29;5.53;;;2.53;;
69523;SDS011;56723;42.694;23.286;2022-07-04T08:03:56;4.22;;;1.80;;
69523;SDS011;56723;42.694;23.286;2022-07-04T08:06:47;8.65;;;2.47;;
69523;SDS011;56723;42.694;23.286;2022-07-04T08:09:34;7.05;;;2.15;;
69523;SDS011;56723;42.694;23.286;2022-07-04T08:12:02;4.22;;;1.65;;
69523;SDS011;56723;42.694;23.286;2022-07-04T08:14:31;11.55;;;1.88;;
69523;SDS011;56723;42.694;23.286;2022-07-04T08:16:59;5.20;;;1.88;;
69523;SDS011;56723;42.694;23.286;2022-07-04T08:19:27;9.47;;;2.83;;
69523;SDS011;56723;42.694;23.286;2022-07-04T08:21:54;4.32;;;2.50;;
69523;SDS011;56723;42.694;23.286;2022-07-04T08:24:40;4.18;;;1.92;;
69523;SDS011;56723;42.694;23.286;2022-07-04T08:27:07;4.30;;;2.05;;
69523;SDS011;56723;42.694;23.286;2022-07-04T08:29:34;5.97;;;2.03;;
69523;SDS011;56723;42.694;23.286;2022-07-04T08:32:02;4.53;;;3.50;;
69523;SDS011;56723;42.694;23.286;2022-07-04T08:34:29;9.20;;;3.42;;
69523;SDS011;56723;42.694;23.286;2022-07-04T08:36:56;10.00;;;3.20;;
69523;SDS011;56723;42.694;23.286;2022-07-04T08:39:23;5.10;;;2.20;;
69523;SDS011;56723;42.694;23.286;2022-07-04T08:41:51;6.65;;;3.00;;
69523;SDS011;56723;42.694;23.286;2022-07-04T08:44:19;4.40;;;2.15;;
69523;SDS011;56723;42.694;23.286;2022-07-04T08:46:48;7.78;;;2.90;;
69523;SDS011;56723;42.694;23.286;2022-07-04T08:49:23;3.13;;;2.38;;
69523;SDS011;56723;42.694;23.286;2022-07-04T08:52:00;7.45;;;4.60;;
69523;SDS011;56723;42.694;23.286;2022-07-04T08:54:31;5.72;;;3.55;;
69523;SDS011;56723;42.694;23.286;2022-07-04T08:57:18;3.47;;;2.42;;
69523;SDS011;56723;42.694;23.286;2022-07-04T09:00:04;4.35;;;2.53;;
69523;SDS011;56723;42.694;23.286;2022-07-04T09:02:34;6.25;;;3.10;;
69523;SDS011;56723;42.694;23.286;2022-07-04T09:05:04;4.05;;;2.90;;
69523;SDS011;56723;42.694;23.286;2022-07-04T09:09:59;3.65;;;2.67;;
69523;SDS011;56723;42.694;23.286;2022-07-04T09:12:28;3.40;;;3.10;;
69523;SDS011;56723;42.694;23.286;2022-07-04T09:15:13;6.60;;;3.63;;
69523;SDS011;56723;42.694;23.286;2022-07-04T09:17:42;4.45;;;2.70;;
69523;SDS011;56723;42.694;23.286;2022-07-04T09:20:16;3.88;;;3.08;;
69523;SDS011;56723;42.694;23.286;2022-07-04T09:22:47;5.53;;;3.75;;
69523;SDS011;56723;42.694;23.286;2022-07-04T09:27:46;9.43;;;3.40;;
69523;SDS011;56723;42.694;23.286;2022-07-04T09:30:24;6.65;;;3.58;;
69523;SDS011;56723;42.694;23.286;2022-07-04T09:32:53;5.68;;;3.25;;
69523;SDS011;56723;42.694;23.286;2022-07-04T09:35:27;7.55;;;3.35;;
69523;SDS011;56723;42.694;23.286;2022-07-04T09:37:58;3.55;;;2.80;;
69523;SDS011;56723;42.694;23.286;2022-07-04T09:40:28;3.47;;;3.05;;
69523;SDS011;56723;42.694;23.286;2022-07-04T09:42:56;3.92;;;2.88;;
69523;SDS011;56723;42.694;23.286;2022-07-04T09:45:25;6.22;;;2.92;;
69523;SDS011;56723;42.694;23.286;2022-07-04T09:47:53;5.03;;;2.95;;
69523;SDS011;56723;42.694;23.286;2022-07-04T09:50:23;6.82;;;2.70;;
69523;SDS011;56723;42.694;23.286;2022-07-04T09:58:01;6.43;;;2.85;;
69523;SDS011;56723;42.694;23.286;2022-07-04T10:00:31;4.32;;;2.78;;
69523;SDS011;56723;42.694;23.286;2022-07-04T10:05:48;5.25;;;2.50;;
69523;SDS011;56723;42.694;23.286;2022-07-04T10:08:28;4.38;;;2.88;;
69523;SDS011;56723;42.694;23.286;2022-07-04T10:10:56;4.70;;;3.65;;
69523;SDS011;56723;42.694;23.286;2022-07-04T10:13:24;4.80;;;3.00;;
69523;SDS011;56723;42.694;23.286;2022-07-04T10:15:51;4.90;;;3.30;;
69523;SDS011;56723;42.694;23.286;2022-07-04T10:18:20;4.78;;;3.20;;
69523;SDS011;56723;42.694;23.286;2022-07-04T10:20:48;3.95;;;2.72;;
69523;SDS011;56723;42.694;23.286;2022-07-04T10:25:50;4.28;;;2.63;;
69523;SDS011;56723;42.694;23.286;2022-07-04T10:28:20;5.32;;;3.30;;
69523;SDS011;56723;42.694;23.286;2022-07-04T10:30:48;4.70;;;3.60;;
69523;SDS011;56723;42.694;23.286;2022-07-04T10:33:22;5.80;;;4.05;;
69523;SDS011;56723;42.694;23.286;2022-07-04T10:35:52;4.22;;;3.47;;
69523;SDS011;56723;42.694;23.286;2022-07-04T10:38:24;4.88;;;3.10;;
69523;SDS011;56723;42.694;23.286;2022-07-04T10:40:53;6.03;;;3.65;;
69523;SDS011;56723;42.694;23.286;2022-07-04T10:54:15;5.18;;;3.10;;
69523;SDS011;56723;42.694;23.286;2022-07-04T10:57:08;5.85;;;3.50;;
69523;SDS011;56723;42.694;23.286;2022-07-04T10:59:39;5.35;;;4.07;;
69523;SDS011;56723;42.694;23.286;2022-07-04T11:18:03;5.78;;;4.07;;
69523;SDS011;56723;42.694;23.286;2022-07-04T11:20:35;5.05;;;3.35;;
69523;SDS011;56723;42.694;23.286;2022-07-04T11:25:35;4.43;;;3.60;;
69523;SDS011;56723;42.694;23.286;2022-07-04T11:31:09;3.97;;;3.67;;
69523;SDS011;56723;42.694;23.286;2022-07-04T11:36:07;5.10;;;4.15;;
69523;SDS011;56723;42.694;23.286;2022-07-04T11:41:21;4.20;;;3.17;;
69523;SDS011;56723;42.694;23.286;2022-07-04T11:44:12;4.22;;;3.80;;
69523;SDS011;56723;42.694;23.286;2022-07-04T11:47:06;4.20;;;3.72;;
69523;SDS011;56723;42.694;23.286;2022-07-04T11:49:35;6.15;;;3.95;;
69523;SDS011;56723;42.694;23.286;2022-07-04T11:52:07;4.70;;;3.53;;
69523;SDS011;56723;42.694;23.286;2022-07-04T11:54:34;5.77;;;4.07;;
69523;SDS011;56723;42.694;23.286;2022-07-04T11:57:28;7.55;;;3.90;;
69523;SDS011;56723;42.694;23.286;2022-07-04T12:02:27;8.82;;;4.20;;
69523;SDS011;56723;42.694;23.286;2022-07-04T12:04:56;7.22;;;3.45;;
69523;SDS011;56723;42.694;23.286;2022-07-04T12:07:27;4.38;;;3.22;;
69523;SDS011;56723;42.694;23.286;2022-07-04T12:09:56;7.63;;;4.28;;
69523;SDS011;56723;42.694;23.286;2022-07-04T12:12:23;5.53;;;4.20;;
69523;SDS011;56723;42.694;23.286;2022-07-04T12:15:00;5.18;;;3.75;;
69523;SDS011;56723;42.694;23.286;2022-07-04T12:17:29;6.05;;;3.95;;
69523;SDS011;56723;42.694;23.286;2022-07-04T12:20:02;4.22;;;3.45;;
69523;SDS011;56723;42.694;23.286;2022-07-04T12:22:41;4.95;;;3.72;;
69523;SDS011;56723;42.694;23.286;2022-07-04T12:27:59;4.38;;;3.97;;
69523;SDS011;56723;42.694;23.286;2022-07-04T12:30:35;9.55;;;3.47;;
69523;SDS011;56723;42.694;23.286;2022-07-04T12:33:07;6.53;;;5.38;;
69523;SDS011;56723;42.694;23.286;2022-07-04T12:41:04;4.40;;;3.80;;
69523;SDS011;56723;42.694;23.286;2022-07-04T12:48:58;6.10;;;3.92;;
69523;SDS011;56723;42.694;23.286;2022-07-04T12:51:28;3.70;;;3.40;;
69523;SDS011;56723;42.694;23.286;2022-07-04T12:53:57;5.07;;;4.07;;
69523;SDS011;56723;42.694;23.286;2022-07-04T12:59:04;4.57;;;3.90;;
69523;SDS011;56723;42.694;23.286;2022-07-04T13:01:38;4.03;;;3.53;;
69523;SDS011;56723;42.694;23.286;2022-07-04T13:04:07;5.55;;;3.80;;
69523;SDS011;56723;42.694;23.286;2022-07-04T13:06:35;6.57;;;4.15;;
69523;SDS011;56723;42.694;23.286;2022-07-04T13:09:03;5.57;;;3.60;;
69523;SDS011;56723;42.694;23.286;2022-07-04T13:11:34;7.00;;;4.03;;
69523;SDS011;56723;42.694;23.286;2022-07-04T13:14:20;4.18;;;3.85;;
69523;SDS011;56723;42.694;23.286;2022-07-04T13:16:47;5.18;;;4.35;;
69523;SDS011;56723;42.694;23.286;2022-07-04T13:19:14;5.78;;;3.92;;
69523;SDS011;56723;42.694;23.286;2022-07-04T13:21:43;4.25;;;3.78;;
69523;SDS011;56723;42.694;23.286;2022-07-04T13:24:11;5.45;;;3.88;;
69523;SDS011;56723;42.694;23.286;2022-07-04T13:26:39;4.43;;;4.03;;
69523;SDS011;56723;42.694;23.286;2022-07-04T13:29:07;3.90;;;3.50;;
69523;SDS011;56723;42.694;23.286;2022-07-04T13:31:38;5.80;;;3.83;;
69523;SDS011;56723;42.694;23.286;2022-07-04T13:34:05;4.70;;;3.85;;
69523;SDS011;56723;42.694;23.286;2022-07-04T13:36:32;5.63;;;3.92;;
69523;SDS011;56723;42.694;23.286;2022-07-04T13:38:59;9.55;;;4.00;;
69523;SDS011;56723;42.694;23.286;2022-07-04T13:41:32;6.00;;;3.97;;
69523;SDS011;56723;42.694;23.286;2022-07-04T13:44:01;4.60;;;3.58;;
69523;SDS011;56723;42.694;23.286;2022-07-04T13:46:31;9.05;;;4.28;;
69523;SDS011;56723;42.694;23.286;2022-07-04T13:49:05;4.22;;;3.55;;
69523;SDS011;56723;42.694;23.286;2022-07-04T13:51:41;4.50;;;3.30;;
69523;SDS011;56723;42.694;23.286;2022-07-04T13:54:09;5.28;;;3.85;;
69523;SDS011;56723;42.694;23.286;2022-07-04T13:56:36;7.43;;;4.68;;
69523;SDS011;56723;42.694;23.286;2022-07-04T13:59:03;7.50;;;4.33;;
69523;SDS011;56723;42.694;23.286;2022-07-04T14:01:30;6.32;;;4.35;;
69523;SDS011;56723;42.694;23.286;2022-07-04T14:03:57;6.40;;;3.92;;
69523;SDS011;56723;42.694;23.286;2022-07-04T14:06:24;5.85;;;3.92;;
69523;SDS011;56723;42.694;23.286;2022-07-04T14:08:51;4.10;;;3.75;;
69523;SDS011;56723;42.694;23.286;2022-07-04T14:11:18;5.15;;;3.78;;
69523;SDS011;56723;42.694;23.286;2022-07-04T14:13:45;7.13;;;4.10;;
69523;SDS011;56723;42.694;23.286;2022-07-04T14:16:12;5.38;;;3.53;;
69523;SDS011;56723;42.694;23.286;2022-07-04T14:18:39;4.38;;;3.97;;
69523;SDS011;56723;42.694;23.286;2022-07-04T14:21:06;5.45;;;4.30;;
69523;SDS011;56723;42.694;23.286;2022-07-04T14:23:33;9.07;;;4.28;;
69523;SDS011;56723;42.694;23.286;2022-07-04T14:26:10;6.30;;;5.10;;
69523;SDS011;56723;42.694;23.286;2022-07-04T14:28:39;5.72;;;4.40;;
69523;SDS011;56723;42.694;23.286;2022-07-04T14:31:07;4.47;;;3.65;;
69523;SDS011;56723;42.694;23.286;2022-07-04T14:33:34;6.40;;;3.03;;
69523;SDS011;56723;42.694;23.286;2022-07-04T14:36:04;4.65;;;3.50;;
69523;SDS011;56723;42.694;23.286;2022-07-04T14:38:34;4.63;;;4.07;;
69523;SDS011;56723;42.694;23.286;2022-07-04T14:41:01;5.47;;;3.95;;
69523;SDS011;56723;42.694;23.286;2022-07-04T14:43:42;8.40;;;4.90;;
69523;SDS011;56723;42.694;23.286;2022-07-04T14:46:10;5.00;;;3.45;;
69523;SDS011;56723;42.694;23.286;2022-07-04T14:48:38;8.73;;;4.65;;
69523;SDS011;56723;42.694;23.286;2022-07-04T14:51:05;5.50;;;4.57;;
69523;SDS011;56723;42.694;23.286;2022-07-04T14:53:33;6.10;;;5.50;;
69523;SDS011;56723;42.694;23.286;2022-07-04T14:56:00;5.17;;;4.20;;
69523;SDS011;56723;42.694;23.286;2022-07-04T14:58:27;5.78;;;5.20;;
69523;SDS011;56723;42.694;23.286;2022-07-04T15:00:55;5.93;;;4.28;;
69523;SDS011;56723;42.694;23.286;2022-07-04T15:05:49;7.32;;;4.00;;
69523;SDS011;56723;42.694;23.286;2022-07-04T15:08:16;7.68;;;4.20;;
69523;SDS011;56723;42.694;23.286;2022-07-04T15:10:43;4.40;;;3.97;;
69523;SDS011;56723;42.694;23.286;2022-07-04T15:13:29;4.95;;;4.45;;
69523;SDS011;56723;42.694;23.286;2022-07-04T15:15:56;7.40;;;4.93;;
69523;SDS011;56723;42.694;23.286;2022-07-04T15:18:43;8.00;;;5.10;;
69523;SDS011;56723;42.694;23.286;2022-07-04T15:21:10;4.63;;;4.00;;
69523;SDS011;56723;42.694;23.286;2022-07-04T15:23:56;5.15;;;4.25;;
69523;SDS011;56723;42.694;23.286;2022-07-04T15:26:40;6.82;;;4.15;;
69523;SDS011;56723;42.694;23.286;2022-07-04T15:29:09;5.82;;;4.13;;
69523;SDS011;56723;42.694;23.286;2022-07-04T15:31:39;4.60;;;4.15;;
69523;SDS011;56723;42.694;23.286;2022-07-04T15:34:07;7.32;;;3.80;;
69523;SDS011;56723;42.694;23.286;2022-07-04T15:36:34;4.93;;;4.10;;
69523;SDS011;56723;42.694;23.286;2022-07-04T15:39:11;4.43;;;4.03;;
69523;SDS011;56723;42.694;23.286;2022-07-04T15:41:40;3.83;;;3.45;;
69523;SDS011;56723;42.694;23.286;2022-07-04T15:46:35;4.40;;;3.97;;
69523;SDS011;56723;42.694;23.286;2022-07-04T15:49:22;5.53;;;3.55;;
69523;SDS011;56723;42.694;23.286;2022-07-04T15:51:49;5.50;;;3.97;;
69523;SDS011;56723;42.694;23.286;2022-07-04T15:54:16;6.28;;;3.63;;
69523;SDS011;56723;42.694;23.286;2022-07-04T15:56:43;5.45;;;3.65;;
69523;SDS011;56723;42.694;23.286;2022-07-04T15:59:10;5.97;;;4.30;;
69523;SDS011;56723;42.694;23.286;2022-07-04T16:01:37;7.13;;;4.07;;
69523;SDS011;56723;42.694;23.286;2022-07-04T16:04:04;6.18;;;4.70;;
69523;SDS011;56723;42.694;23.286;2022-07-04T16:06:32;12.88;;;4.93;;